6TX2 weather

Circle M Ranch Airport
Frelsburg, Texas, United States

Public forecast

Using degrees Fahrenheit for public forecast. Weather courtesy of forecast.io.

METAR (pilot weather report)

Closest report is Robert R Wells Jr Airport, 11.6 nm (21.6 km) S. Retrieved 2019/07/22 07:35 UTC (0 seconds ago):

K66R 220735Z AUTO 00000KT 10SM CLR 25/23 A2997 RMK AO2 T02520226

TAF (pilot weather forecast)

Closest forecast is Easterwood Field, 45.9 nm (85.0 km) N. Retrieved 2019/07/22 06:24 UTC (37 minutes ago):

TAF KCLL 220523Z 2206/2306 15010KT P6SM SCT015 SCT250 FM220900 19005KT P6SM SCT015 FM221100 20004KT P6SM BKN015 BKN250 TEMPO 2211/2213 OVC010 FM221500 23007KT P6SM SCT035 SCT250 FM222300 17006KT P6SM VCSH SCT040 OVC250 FM230200 VRB05KT P6SM VCTS BKN035CB OVC250 PROB30 2303/2306 01010G15KT TSRA